sensor_id;sensor_type;location;lat;lon;timestamp;P1;durP1;ratioP1;P2;durP2;ratioP2
4636;SDS011;2331;48.806;9.140;2022-11-24T00:00:15;8.85;;;2.78;;
4636;SDS011;2331;48.806;9.140;2022-11-24T00:02:43;9.38;;;2.40;;
4636;SDS011;2331;48.806;9.140;2022-11-24T00:05:09;12.10;;;2.45;;
4636;SDS011;2331;48.806;9.140;2022-11-24T00:07:36;9.70;;;2.63;;
4636;SDS011;2331;48.806;9.140;2022-11-24T00:10:03;8.77;;;2.38;;
4636;SDS011;2331;48.806;9.140;2022-11-24T00:12:30;10.27;;;2.15;;
4636;SDS011;2331;48.806;9.140;2022-11-24T00:14:57;15.20;;;2.08;;
4636;SDS011;2331;48.806;9.140;2022-11-24T00:17:25;8.90;;;2.45;;
4636;SDS011;2331;48.806;9.140;2022-11-24T00:19:53;8.80;;;2.00;;
4636;SDS011;2331;48.806;9.140;2022-11-24T00:22:20;7.32;;;2.10;;
4636;SDS011;2331;48.806;9.140;2022-11-24T00:24:47;6.85;;;2.00;;
4636;SDS011;2331;48.806;9.140;2022-11-24T00:27:13;7.78;;;2.30;;
4636;SDS011;2331;48.806;9.140;2022-11-24T00:29:40;10.77;;;2.30;;
4636;SDS011;2331;48.806;9.140;2022-11-24T00:32:07;5.57;;;2.00;;
4636;SDS011;2331;48.806;9.140;2022-11-24T00:34:35;6.10;;;2.17;;
4636;SDS011;2331;48.806;9.140;2022-11-24T00:37:02;7.07;;;2.05;;
4636;SDS011;2331;48.806;9.140;2022-11-24T00:39:29;8.05;;;1.90;;
4636;SDS011;2331;48.806;9.140;2022-11-24T00:41:56;4.50;;;1.95;;
4636;SDS011;2331;48.806;9.140;2022-11-24T00:44:22;13.57;;;2.40;;
4636;SDS011;2331;48.806;9.140;2022-11-24T00:46:49;10.32;;;2.55;;
4636;SDS011;2331;48.806;9.140;2022-11-24T00:49:16;8.73;;;2.38;;
4636;SDS011;2331;48.806;9.140;2022-11-24T00:51:44;5.20;;;2.10;;
4636;SDS011;2331;48.806;9.140;2022-11-24T00:54:11;11.77;;;2.25;;
4636;SDS011;2331;48.806;9.140;2022-11-24T00:56:38;9.05;;;2.40;;
4636;SDS011;2331;48.806;9.140;2022-11-24T00:59:04;5.57;;;2.05;;
4636;SDS011;2331;48.806;9.140;2022-11-24T01:01:31;6.43;;;2.08;;
4636;SDS011;2331;48.806;9.140;2022-11-24T01:03:58;6.38;;;2.13;;
4636;SDS011;2331;48.806;9.140;2022-11-24T01:06:26;6.22;;;2.25;;
4636;SDS011;2331;48.806;9.140;2022-11-24T01:08:56;8.43;;;2.47;;
4636;SDS011;2331;48.806;9.140;2022-11-24T01:11:24;8.45;;;2.10;;
4636;SDS011;2331;48.806;9.140;2022-11-24T01:13:52;5.45;;;1.75;;
4636;SDS011;2331;48.806;9.140;2022-11-24T01:16:22;9.35;;;2.50;;
4636;SDS011;2331;48.806;9.140;2022-11-24T01:18:50;8.82;;;1.95;;
4636;SDS011;2331;48.806;9.140;2022-11-24T01:21:18;8.88;;;2.13;;
4636;SDS011;2331;48.806;9.140;2022-11-24T01:23:45;10.05;;;2.17;;
4636;SDS011;2331;48.806;9.140;2022-11-24T01:26:14;7.13;;;2.17;;
4636;SDS011;2331;48.806;9.140;2022-11-24T01:28:43;9.00;;;2.30;;
4636;SDS011;2331;48.806;9.140;2022-11-24T01:31:11;9.10;;;2.00;;
4636;SDS011;2331;48.806;9.140;2022-11-24T01:33:38;9.68;;;2.38;;
4636;SDS011;2331;48.806;9.140;2022-11-24T01:36:05;8.07;;;2.28;;
4636;SDS011;2331;48.806;9.140;2022-11-24T01:38:32;9.07;;;2.35;;
4636;SDS011;2331;48.806;9.140;2022-11-24T01:40:59;10.63;;;2.22;;
4636;SDS011;2331;48.806;9.140;2022-11-24T01:43:28;5.32;;;1.88;;
4636;SDS011;2331;48.806;9.140;2022-11-24T01:45:55;8.85;;;2.10;;
4636;SDS011;2331;48.806;9.140;2022-11-24T01:48:24;7.38;;;2.00;;
4636;SDS011;2331;48.806;9.140;2022-11-24T01:50:57;7.28;;;2.35;;
4636;SDS011;2331;48.806;9.140;2022-11-24T01:53:32;4.97;;;1.80;;
4636;SDS011;2331;48.806;9.140;2022-11-24T01:55:59;10.23;;;2.45;;
4636;SDS011;2331;48.806;9.140;2022-11-24T01:58:27;5.78;;;1.90;;
4636;SDS011;2331;48.806;9.140;2022-11-24T02:00:57;9.18;;;2.35;;
4636;SDS011;2331;48.806;9.140;2022-11-24T02:03:25;6.55;;;1.90;;
4636;SDS011;2331;48.806;9.140;2022-11-24T02:05:56;7.03;;;2.00;;
4636;SDS011;2331;48.806;9.140;2022-11-24T02:08:27;8.25;;;1.92;;
4636;SDS011;2331;48.806;9.140;2022-11-24T02:10:57;8.82;;;1.58;;
4636;SDS011;2331;48.806;9.140;2022-11-24T02:13:26;13.15;;;1.73;;
4636;SDS011;2331;48.806;9.140;2022-11-24T02:15:54;7.50;;;1.80;;
4636;SDS011;2331;48.806;9.140;2022-11-24T02:18:21;9.18;;;2.10;;
4636;SDS011;2331;48.806;9.140;2022-11-24T02:20:48;9.15;;;1.77;;
4636;SDS011;2331;48.806;9.140;2022-11-24T02:23:16;4.97;;;1.70;;
4636;SDS011;2331;48.806;9.140;2022-11-24T02:25:49;4.68;;;1.88;;
4636;SDS011;2331;48.806;9.140;2022-11-24T02:28:25;2.22;;;1.50;;
4636;SDS011;2331;48.806;9.140;2022-11-24T02:30:54;6.20;;;1.95;;
4636;SDS011;2331;48.806;9.140;2022-11-24T02:33:21;7.38;;;2.17;;
4636;SDS011;2331;48.806;9.140;2022-11-24T02:35:49;5.63;;;1.70;;
4636;SDS011;2331;48.806;9.140;2022-11-24T02:38:16;6.15;;;1.63;;
4636;SDS011;2331;48.806;9.140;2022-11-24T02:40:43;11.57;;;2.10;;
4636;SDS011;2331;48.806;9.140;2022-11-24T02:43:13;8.82;;;1.95;;
4636;SDS011;2331;48.806;9.140;2022-11-24T02:45:44;7.38;;;1.90;;
4636;SDS011;2331;48.806;9.140;2022-11-24T02:48:12;6.82;;;1.58;;
4636;SDS011;2331;48.806;9.140;2022-11-24T02:50:39;17.55;;;1.98;;
4636;SDS011;2331;48.806;9.140;2022-11-24T02:53:06;12.55;;;2.53;;
4636;SDS011;2331;48.806;9.140;2022-11-24T02:55:32;6.32;;;1.83;;
4636;SDS011;2331;48.806;9.140;2022-11-24T02:57:59;6.75;;;1.92;;
4636;SDS011;2331;48.806;9.140;2022-11-24T03:00:26;4.93;;;1.80;;
4636;SDS011;2331;48.806;9.140;2022-11-24T03:02:54;5.55;;;1.67;;
4636;SDS011;2331;48.806;9.140;2022-11-24T03:05:21;7.00;;;1.90;;
4636;SDS011;2331;48.806;9.140;2022-11-24T03:07:47;5.65;;;1.70;;
4636;SDS011;2331;48.806;9.140;2022-11-24T03:10:14;7.80;;;1.65;;
4636;SDS011;2331;48.806;9.140;2022-11-24T03:12:41;3.92;;;1.40;;
4636;SDS011;2331;48.806;9.140;2022-11-24T03:15:08;10.98;;;2.35;;
4636;SDS011;2331;48.806;9.140;2022-11-24T03:17:36;3.88;;;1.48;;
4636;SDS011;2331;48.806;9.140;2022-11-24T03:20:05;7.60;;;2.00;;
4636;SDS011;2331;48.806;9.140;2022-11-24T03:22:32;7.20;;;1.75;;
4636;SDS011;2331;48.806;9.140;2022-11-24T03:24:59;4.30;;;1.30;;
4636;SDS011;2331;48.806;9.140;2022-11-24T03:27:26;6.75;;;1.88;;
4636;SDS011;2331;48.806;9.140;2022-11-24T03:29:53;3.80;;;1.80;;
4636;SDS011;2331;48.806;9.140;2022-11-24T03:32:19;4.78;;;1.70;;
4636;SDS011;2331;48.806;9.140;2022-11-24T03:34:46;6.72;;;1.80;;
4636;SDS011;2331;48.806;9.140;2022-11-24T03:37:15;6.13;;;2.30;;
4636;SDS011;2331;48.806;9.140;2022-11-24T03:39:42;7.50;;;2.03;;
4636;SDS011;2331;48.806;9.140;2022-11-24T03:42:09;3.30;;;1.52;;
4636;SDS011;2331;48.806;9.140;2022-11-24T03:44:36;4.90;;;1.60;;
4636;SDS011;2331;48.806;9.140;2022-11-24T03:47:02;4.03;;;1.70;;
4636;SDS011;2331;48.806;9.140;2022-11-24T03:49:29;4.70;;;1.70;;
4636;SDS011;2331;48.806;9.140;2022-11-24T03:51:56;5.43;;;1.50;;
4636;SDS011;2331;48.806;9.140;2022-11-24T03:54:24;7.90;;;1.50;;
4636;SDS011;2331;48.806;9.140;2022-11-24T03:56:51;7.05;;;1.70;;
4636;SDS011;2331;48.806;9.140;2022-11-24T03:59:18;4.97;;;1.60;;
4636;SDS011;2331;48.806;9.140;2022-11-24T04:01:44;4.60;;;1.65;;
4636;SDS011;2331;48.806;9.140;2022-11-24T04:04:11;6.22;;;1.65;;
4636;SDS011;2331;48.806;9.140;2022-11-24T04:06:39;4.90;;;1.33;;
4636;SDS011;2331;48.806;9.140;2022-11-24T04:09:05;4.38;;;1.60;;
4636;SDS011;2331;48.806;9.140;2022-11-24T04:11:33;4.63;;;1.85;;
4636;SDS011;2331;48.806;9.140;2022-11-24T04:14:18;4.80;;;1.98;;
4636;SDS011;2331;48.806;9.140;2022-11-24T04:16:45;4.60;;;1.98;;
4636;SDS011;2331;48.806;9.140;2022-11-24T04:19:11;6.15;;;1.85;;
4636;SDS011;2331;48.806;9.140;2022-11-24T04:21:38;7.80;;;1.70;;
4636;SDS011;2331;48.806;9.140;2022-11-24T04:24:05;4.95;;;1.75;;
4636;SDS011;2331;48.806;9.140;2022-11-24T04:26:33;9.93;;;2.03;;
4636;SDS011;2331;48.806;9.140;2022-11-24T04:29:00;5.38;;;1.52;;
4636;SDS011;2331;48.806;9.140;2022-11-24T04:31:27;4.05;;;1.73;;
4636;SDS011;2331;48.806;9.140;2022-11-24T04:33:53;15.43;;;2.50;;
4636;SDS011;2331;48.806;9.140;2022-11-24T04:36:20;7.75;;;2.08;;
4636;SDS011;2331;48.806;9.140;2022-11-24T04:38:47;4.72;;;1.55;;
4636;SDS011;2331;48.806;9.140;2022-11-24T04:41:14;5.68;;;1.80;;
4636;SDS011;2331;48.806;9.140;2022-11-24T04:43:42;4.60;;;1.95;;
4636;SDS011;2331;48.806;9.140;2022-11-24T04:46:09;6.95;;;1.75;;
4636;SDS011;2331;48.806;9.140;2022-11-24T04:48:36;4.72;;;1.70;;
4636;SDS011;2331;48.806;9.140;2022-11-24T04:51:03;8.25;;;1.70;;
4636;SDS011;2331;48.806;9.140;2022-11-24T04:53:30;5.90;;;2.03;;
4636;SDS011;2331;48.806;9.140;2022-11-24T04:55:57;5.90;;;2.35;;
4636;SDS011;2331;48.806;9.140;2022-11-24T04:58:24;10.93;;;2.67;;
4636;SDS011;2331;48.806;9.140;2022-11-24T05:00:52;7.43;;;2.67;;
4636;SDS011;2331;48.806;9.140;2022-11-24T05:03:19;8.65;;;1.77;;
4636;SDS011;2331;48.806;9.140;2022-11-24T05:05:45;7.53;;;2.00;;
4636;SDS011;2331;48.806;9.140;2022-11-24T05:08:12;6.80;;;2.15;;
4636;SDS011;2331;48.806;9.140;2022-11-24T05:10:39;5.68;;;2.22;;
4636;SDS011;2331;48.806;9.140;2022-11-24T05:13:09;6.85;;;2.08;;
4636;SDS011;2331;48.806;9.140;2022-11-24T05:15:37;9.15;;;2.30;;
4636;SDS011;2331;48.806;9.140;2022-11-24T05:18:07;8.98;;;2.65;;
4636;SDS011;2331;48.806;9.140;2022-11-24T05:20:36;4.93;;;2.00;;
4636;SDS011;2331;48.806;9.140;2022-11-24T05:23:03;8.98;;;1.92;;
4636;SDS011;2331;48.806;9.140;2022-11-24T05:25:32;11.98;;;2.17;;
4636;SDS011;2331;48.806;9.140;2022-11-24T05:27:59;3.85;;;1.77;;
4636;SDS011;2331;48.806;9.140;2022-11-24T05:30:26;7.45;;;2.22;;
4636;SDS011;2331;48.806;9.140;2022-11-24T05:32:53;7.30;;;1.85;;
4636;SDS011;2331;48.806;9.140;2022-11-24T05:35:22;6.70;;;2.45;;
4636;SDS011;2331;48.806;9.140;2022-11-24T05:37:49;10.20;;;2.03;;
4636;SDS011;2331;48.806;9.140;2022-11-24T05:40:15;12.60;;;2.90;;
4636;SDS011;2331;48.806;9.140;2022-11-24T05:42:42;7.60;;;2.15;;
4636;SDS011;2331;48.806;9.140;2022-11-24T05:45:10;13.82;;;3.38;;
4636;SDS011;2331;48.806;9.140;2022-11-24T05:47:38;7.15;;;1.98;;
4636;SDS011;2331;48.806;9.140;2022-11-24T05:50:06;12.07;;;2.20;;
4636;SDS011;2331;48.806;9.140;2022-11-24T05:52:36;8.27;;;2.50;;
4636;SDS011;2331;48.806;9.140;2022-11-24T05:55:03;7.25;;;2.10;;
4636;SDS011;2331;48.806;9.140;2022-11-24T05:57:31;10.65;;;2.25;;
4636;SDS011;2331;48.806;9.140;2022-11-24T05:59:58;9.13;;;2.70;;
4636;SDS011;2331;48.806;9.140;2022-11-24T06:02:24;8.25;;;2.10;;
4636;SDS011;2331;48.806;9.140;2022-11-24T06:04:51;9.73;;;2.40;;
4636;SDS011;2331;48.806;9.140;2022-11-24T06:07:19;10.23;;;2.30;;
4636;SDS011;2331;48.806;9.140;2022-11-24T06:09:47;6.85;;;2.03;;
4636;SDS011;2331;48.806;9.140;2022-11-24T06:12:14;6.13;;;1.73;;
4636;SDS011;2331;48.806;9.140;2022-11-24T06:14:40;5.13;;;2.10;;
4636;SDS011;2331;48.806;9.140;2022-11-24T06:17:08;8.07;;;2.10;;
4636;SDS011;2331;48.806;9.140;2022-11-24T06:19:35;5.68;;;1.42;;
4636;SDS011;2331;48.806;9.140;2022-11-24T06:22:02;7.50;;;2.30;;
4636;SDS011;2331;48.806;9.140;2022-11-24T06:24:29;8.73;;;1.80;;
4636;SDS011;2331;48.806;9.140;2022-11-24T06:26:57;12.25;;;2.75;;
4636;SDS011;2331;48.806;9.140;2022-11-24T06:29:24;10.35;;;2.40;;
4636;SDS011;2331;48.806;9.140;2022-11-24T06:31:50;11.52;;;2.42;;
4636;SDS011;2331;48.806;9.140;2022-11-24T06:34:17;9.57;;;2.72;;
4636;SDS011;2331;48.806;9.140;2022-11-24T06:36:44;6.57;;;2.60;;
4636;SDS011;2331;48.806;9.140;2022-11-24T06:39:11;6.68;;;1.75;;
4636;SDS011;2331;48.806;9.140;2022-11-24T06:41:37;6.38;;;1.98;;
4636;SDS011;2331;48.806;9.140;2022-11-24T06:44:06;6.57;;;1.95;;
4636;SDS011;2331;48.806;9.140;2022-11-24T06:46:32;7.10;;;1.98;;
4636;SDS011;2331;48.806;9.140;2022-11-24T06:48:59;10.88;;;2.60;;
4636;SDS011;2331;48.806;9.140;2022-11-24T06:51:26;13.07;;;2.65;;
4636;SDS011;2331;48.806;9.140;2022-11-24T06:53:53;10.20;;;2.25;;
4636;SDS011;2331;48.806;9.140;2022-11-24T06:56:20;10.02;;;2.58;;
4636;SDS011;2331;48.806;9.140;2022-11-24T06:58:48;12.18;;;2.22;;
4636;SDS011;2331;48.806;9.140;2022-11-24T07:01:19;6.65;;;2.22;;
4636;SDS011;2331;48.806;9.140;2022-11-24T07:03:48;8.88;;;2.15;;
4636;SDS011;2331;48.806;9.140;2022-11-24T07:06:16;8.60;;;1.60;;
4636;SDS011;2331;48.806;9.140;2022-11-24T07:08:44;11.35;;;2.97;;
4636;SDS011;2331;48.806;9.140;2022-11-24T07:11:12;9.43;;;1.83;;
4636;SDS011;2331;48.806;9.140;2022-11-24T07:13:40;9.68;;;2.50;;
4636;SDS011;2331;48.806;9.140;2022-11-24T07:16:11;6.03;;;1.95;;
4636;SDS011;2331;48.806;9.140;2022-11-24T07:18:40;14.70;;;2.00;;
4636;SDS011;2331;48.806;9.140;2022-11-24T07:21:07;12.75;;;2.00;;
4636;SDS011;2331;48.806;9.140;2022-11-24T07:23:34;12.00;;;2.28;;
4636;SDS011;2331;48.806;9.140;2022-11-24T07:26:01;6.07;;;1.58;;
4636;SDS011;2331;48.806;9.140;2022-11-24T07:28:28;8.98;;;2.08;;
4636;SDS011;2331;48.806;9.140;2022-11-24T07:30:56;12.45;;;2.10;;
4636;SDS011;2331;48.806;9.140;2022-11-24T07:33:23;7.07;;;2.40;;
4636;SDS011;2331;48.806;9.140;2022-11-24T07:35:51;11.05;;;2.20;;
4636;SDS011;2331;48.806;9.140;2022-11-24T07:38:18;7.45;;;2.10;;
4636;SDS011;2331;48.806;9.140;2022-11-24T07:40:45;8.88;;;2.50;;
4636;SDS011;2331;48.806;9.140;2022-11-24T07:43:12;9.30;;;2.20;;
4636;SDS011;2331;48.806;9.140;2022-11-24T07:45:39;12.43;;;2.78;;
4636;SDS011;2331;48.806;9.140;2022-11-24T07:48:06;11.32;;;2.63;;
4636;SDS011;2331;48.806;9.140;2022-11-24T07:50:34;7.82;;;2.65;;
4636;SDS011;2331;48.806;9.140;2022-11-24T07:53:02;6.18;;;1.60;;
4636;SDS011;2331;48.806;9.140;2022-11-24T07:55:29;7.65;;;2.00;;
4636;SDS011;2331;48.806;9.140;2022-11-24T07:57:57;6.03;;;1.60;;
4636;SDS011;2331;48.806;9.140;2022-11-24T08:00:25;5.40;;;2.40;;
4636;SDS011;2331;48.806;9.140;2022-11-24T08:02:52;9.38;;;1.50;;
4636;SDS011;2331;48.806;9.140;2022-11-24T08:05:19;5.60;;;1.75;;
4636;SDS011;2331;48.806;9.140;2022-11-24T08:07:46;5.63;;;1.45;;
4636;SDS011;2331;48.806;9.140;2022-11-24T08:10:15;5.22;;;1.50;;
4636;SDS011;2331;48.806;9.140;2022-11-24T08:12:42;4.55;;;1.30;;
4636;SDS011;2331;48.806;9.140;2022-11-24T08:15:09;6.28;;;1.25;;
4636;SDS011;2331;48.806;9.140;2022-11-24T08:17:36;10.70;;;1.80;;
4636;SDS011;2331;48.806;9.140;2022-11-24T08:20:03;13.60;;;1.50;;
4636;SDS011;2331;48.806;9.140;2022-11-24T08:22:31;5.13;;;1.25;;
4636;SDS011;2331;48.806;9.140;2022-11-24T08:24:57;4.80;;;1.17;;
4636;SDS011;2331;48.806;9.140;2022-11-24T08:27:25;5.95;;;1.55;;
4636;SDS011;2331;48.806;9.140;2022-11-24T08:29:52;3.03;;;0.90;;
4636;SDS011;2331;48.806;9.140;2022-11-24T08:32:19;1.75;;;0.80;;
4636;SDS011;2331;48.806;9.140;2022-11-24T08:34:46;2.35;;;1.20;;
4636;SDS011;2331;48.806;9.140;2022-11-24T08:37:13;1.30;;;0.73;;
4636;SDS011;2331;48.806;9.140;2022-11-24T08:39:39;3.90;;;0.90;;
4636;SDS011;2331;48.806;9.140;2022-11-24T08:42:06;1.88;;;0.80;;
4636;SDS011;2331;48.806;9.140;2022-11-24T08:44:34;1.92;;;0.90;;
4636;SDS011;2331;48.806;9.140;2022-11-24T08:47:01;3.50;;;0.80;;
4636;SDS011;2331;48.806;9.140;2022-11-24T08:49:28;1.52;;;0.90;;
4636;SDS011;2331;48.806;9.140;2022-11-24T08:51:55;2.08;;;0.90;;
4636;SDS011;2331;48.806;9.140;2022-11-24T08:54:23;1.05;;;0.60;;
4636;SDS011;2331;48.806;9.140;2022-11-24T08:56:50;0.93;;;0.65;;
4636;SDS011;2331;48.806;9.140;2022-11-24T08:59:17;1.52;;;0.77;;
4636;SDS011;2331;48.806;9.140;2022-11-24T09:01:45;2.20;;;0.85;;
4636;SDS011;2331;48.806;9.140;2022-11-24T09:04:13;1.48;;;0.90;;
4636;SDS011;2331;48.806;9.140;2022-11-24T09:06:40;2.20;;;0.80;;
4636;SDS011;2331;48.806;9.140;2022-11-24T09:09:08;0.90;;;0.60;;
4636;SDS011;2331;48.806;9.140;2022-11-24T09:11:35;3.13;;;0.95;;
4636;SDS011;2331;48.806;9.140;2022-11-24T09:14:02;1.00;;;0.70;;
4636;SDS011;2331;48.806;9.140;2022-11-24T09:16:29;1.20;;;0.60;;
4636;SDS011;2331;48.806;9.140;2022-11-24T09:18:58;2.17;;;1.13;;
4636;SDS011;2331;48.806;9.140;2022-11-24T09:21:26;1.40;;;0.68;;
4636;SDS011;2331;48.806;9.140;2022-11-24T09:23:54;2.38;;;0.80;;
4636;SDS011;2331;48.806;9.140;2022-11-24T09:26:22;0.90;;;0.63;;
4636;SDS011;2331;48.806;9.140;2022-11-24T09:28:50;0.70;;;0.50;;
4636;SDS011;2331;48.806;9.140;2022-11-24T09:31:19;1.00;;;0.73;;
4636;SDS011;2331;48.806;9.140;2022-11-24T09:33:47;0.93;;;0.57;;
4636;SDS011;2331;48.806;9.140;2022-11-24T09:36:16;1.58;;;0.70;;
4636;SDS011;2331;48.806;9.140;2022-11-24T09:38:49;0.90;;;0.65;;
4636;SDS011;2331;48.806;9.140;2022-11-24T09:41:23;1.40;;;0.82;;
4636;SDS011;2331;48.806;9.140;2022-11-24T09:43:59;0.77;;;0.50;;
4636;SDS011;2331;48.806;9.140;2022-11-24T09:46:35;9.23;;;0.80;;
4636;SDS011;2331;48.806;9.140;2022-11-24T09:49:08;1.50;;;0.85;;
4636;SDS011;2331;48.806;9.140;2022-11-24T09:51:40;1.40;;;0.60;;
4636;SDS011;2331;48.806;9.140;2022-11-24T09:54:11;1.60;;;0.80;;
4636;SDS011;2331;48.806;9.140;2022-11-24T09:56:44;0.70;;;0.60;;
4636;SDS011;2331;48.806;9.140;2022-11-24T09:59:22;1.00;;;0.60;;
4636;SDS011;2331;48.806;9.140;2022-11-24T10:01:51;1.83;;;0.60;;
4636;SDS011;2331;48.806;9.140;2022-11-24T10:04:20;1.50;;;0.85;;
4636;SDS011;2331;48.806;9.140;2022-11-24T10:06:53;0.85;;;0.55;;
4636;SDS011;2331;48.806;9.140;2022-11-24T10:09:35;0.65;;;0.45;;
4636;SDS011;2331;48.806;9.140;2022-11-24T10:12:22;0.80;;;0.50;;
4636;SDS011;2331;48.806;9.140;2022-11-24T10:15:14;1.73;;;0.70;;
4636;SDS011;2331;48.806;9.140;2022-11-24T10:18:20;0.70;;;0.50;;
4636;SDS011;2331;48.806;9.140;2022-11-24T10:21:03;1.60;;;0.50;;
4636;SDS011;2331;48.806;9.140;2022-11-24T10:23:48;1.00;;;0.60;;
4636;SDS011;2331;48.806;9.140;2022-11-24T10:26:25;1.30;;;0.57;;
4636;SDS011;2331;48.806;9.140;2022-11-24T10:29:00;1.88;;;0.70;;
4636;SDS011;2331;48.806;9.140;2022-11-24T10:31:34;1.25;;;0.50;;
4636;SDS011;2331;48.806;9.140;2022-11-24T10:34:12;2.85;;;0.70;;
4636;SDS011;2331;48.806;9.140;2022-11-24T10:36:42;2.75;;;0.70;;
4636;SDS011;2331;48.806;9.140;2022-11-24T10:39:16;1.70;;;0.50;;
4636;SDS011;2331;48.806;9.140;2022-11-24T10:41:48;1.27;;;0.70;;
4636;SDS011;2331;48.806;9.140;2022-11-24T10:44:19;1.13;;;0.60;;
4636;SDS011;2331;48.806;9.140;2022-11-24T10:46:46;0.80;;;0.60;;
4636;SDS011;2331;48.806;9.140;2022-11-24T10:49:14;2.15;;;0.70;;
4636;SDS011;2331;48.806;9.140;2022-11-24T10:51:53;0.90;;;0.70;;
4636;SDS011;2331;48.806;9.140;2022-11-24T10:54:31;3.28;;;1.02;;
4636;SDS011;2331;48.806;9.140;2022-11-24T10:56:59;1.38;;;0.60;;
4636;SDS011;2331;48.806;9.140;2022-11-24T11:08:08;2.28;;;0.70;;
4636;SDS011;2331;48.806;9.140;2022-11-24T11:10:42;4.03;;;1.02;;
4636;SDS011;2331;48.806;9.140;2022-11-24T11:13:23;1.67;;;0.82;;
4636;SDS011;2331;48.806;9.140;2022-11-24T11:15:52;3.15;;;0.90;;
4636;SDS011;2331;48.806;9.140;2022-11-24T11:18:19;2.08;;;1.20;;
4636;SDS011;2331;48.806;9.140;2022-11-24T11:20:52;2.63;;;1.00;;
4636;SDS011;2331;48.806;9.140;2022-11-24T11:23:21;2.00;;;0.80;;
4636;SDS011;2331;48.806;9.140;2022-11-24T11:28:58;2.95;;;1.45;;
4636;SDS011;2331;48.806;9.140;2022-11-24T11:31:26;2.97;;;0.70;;
4636;SDS011;2331;48.806;9.140;2022-11-24T11:33:56;2.38;;;1.10;;
4636;SDS011;2331;48.806;9.140;2022-11-24T11:36:25;2.28;;;0.98;;
4636;SDS011;2331;48.806;9.140;2022-11-24T11:38:53;4.10;;;1.27;;
4636;SDS011;2331;48.806;9.140;2022-11-24T11:41:23;3.10;;;1.15;;
4636;SDS011;2331;48.806;9.140;2022-11-24T11:43:57;2.45;;;1.10;;
4636;SDS011;2331;48.806;9.140;2022-11-24T11:46:46;5.05;;;1.00;;
4636;SDS011;2331;48.806;9.140;2022-11-24T11:49:13;2.50;;;1.25;;
4636;SDS011;2331;48.806;9.140;2022-11-24T11:51:45;7.03;;;1.35;;
4636;SDS011;2331;48.806;9.140;2022-11-24T11:54:36;6.20;;;1.50;;
4636;SDS011;2331;48.806;9.140;2022-11-24T11:57:23;3.58;;;1.25;;
4636;SDS011;2331;48.806;9.140;2022-11-24T12:00:02;2.38;;;1.08;;
4636;SDS011;2331;48.806;9.140;2022-11-24T12:02:38;3.10;;;1.20;;
4636;SDS011;2331;48.806;9.140;2022-11-24T12:05:26;5.22;;;1.50;;
4636;SDS011;2331;48.806;9.140;2022-11-24T12:08:05;7.22;;;1.30;;
4636;SDS011;2331;48.806;9.140;2022-11-24T12:10:43;4.63;;;1.27;;
4636;SDS011;2331;48.806;9.140;2022-11-24T12:13:22;6.60;;;1.55;;
4636;SDS011;2331;48.806;9.140;2022-11-24T12:16:02;7.65;;;1.45;;
4636;SDS011;2331;48.806;9.140;2022-11-24T12:18:37;4.25;;;1.50;;
4636;SDS011;2331;48.806;9.140;2022-11-24T12:21:12;8.32;;;1.90;;
4636;SDS011;2331;48.806;9.140;2022-11-24T12:23:47;5.72;;;1.80;;
4636;SDS011;2331;48.806;9.140;2022-11-24T12:26:23;3.67;;;1.20;;
4636;SDS011;2331;48.806;9.140;2022-11-24T12:29:04;9.68;;;1.60;;
4636;SDS011;2331;48.806;9.140;2022-11-24T12:31:50;7.30;;;1.40;;
4636;SDS011;2331;48.806;9.140;2022-11-24T12:34:29;6.13;;;1.50;;
4636;SDS011;2331;48.806;9.140;2022-11-24T12:37:23;5.65;;;1.60;;
4636;SDS011;2331;48.806;9.140;2022-11-24T12:40:02;3.10;;;1.33;;
4636;SDS011;2331;48.806;9.140;2022-11-24T12:42:34;10.57;;;1.85;;
4636;SDS011;2331;48.806;9.140;2022-11-24T12:45:15;10.23;;;1.80;;
4636;SDS011;2331;48.806;9.140;2022-11-24T12:47:47;3.67;;;1.15;;
4636;SDS011;2331;48.806;9.140;2022-11-24T12:50:46;7.32;;;1.65;;
4636;SDS011;2331;48.806;9.140;2022-11-24T12:53:15;5.95;;;1.85;;
4636;SDS011;2331;48.806;9.140;2022-11-24T12:55:45;6.60;;;2.00;;
4636;SDS011;2331;48.806;9.140;2022-11-24T12:58:13;3.47;;;1.23;;
4636;SDS011;2331;48.806;9.140;2022-11-24T13:00:51;3.67;;;1.23;;
4636;SDS011;2331;48.806;9.140;2022-11-24T13:03:29;8.23;;;1.25;;
4636;SDS011;2331;48.806;9.140;2022-11-24T13:06:06;5.43;;;2.03;;
4636;SDS011;2331;48.806;9.140;2022-11-24T13:08:39;4.22;;;1.48;;
4636;SDS011;2331;48.806;9.140;2022-11-24T13:14:04;3.70;;;1.70;;
4636;SDS011;2331;48.806;9.140;2022-11-24T13:16:34;3.47;;;1.10;;
4636;SDS011;2331;48.806;9.140;2022-11-24T13:19:13;6.97;;;1.58;;
4636;SDS011;2331;48.806;9.140;2022-11-24T13:21:47;4.05;;;1.35;;
4636;SDS011;2331;48.806;9.140;2022-11-24T13:24:30;6.90;;;1.90;;
4636;SDS011;2331;48.806;9.140;2022-11-24T13:30:14;5.90;;;1.52;;
4636;SDS011;2331;48.806;9.140;2022-11-24T13:33:32;2.20;;;1.00;;
4636;SDS011;2331;48.806;9.140;2022-11-24T13:38:55;5.57;;;1.50;;
4636;SDS011;2331;48.806;9.140;2022-11-24T13:47:28;5.35;;;1.35;;
4636;SDS011;2331;48.806;9.140;2022-11-24T13:50:01;5.57;;;1.50;;
4636;SDS011;2331;48.806;9.140;2022-11-24T13:52:38;7.38;;;1.77;;
4636;SDS011;2331;48.806;9.140;2022-11-24T13:55:21;5.43;;;2.05;;
4636;SDS011;2331;48.806;9.140;2022-11-24T13:57:56;6.95;;;1.80;;
4636;SDS011;2331;48.806;9.140;2022-11-24T14:00:26;8.65;;;1.77;;
4636;SDS011;2331;48.806;9.140;2022-11-24T14:02:56;4.18;;;1.60;;
4636;SDS011;2331;48.806;9.140;2022-11-24T14:05:32;4.35;;;1.52;;
4636;SDS011;2331;48.806;9.140;2022-11-24T14:08:03;3.92;;;1.52;;
4636;SDS011;2331;48.806;9.140;2022-11-24T14:10:32;2.80;;;1.30;;
4636;SDS011;2331;48.806;9.140;2022-11-24T14:13:23;5.40;;;1.27;;
4636;SDS011;2331;48.806;9.140;2022-11-24T14:15:57;5.57;;;1.60;;
4636;SDS011;2331;48.806;9.140;2022-11-24T14:18:26;8.32;;;1.85;;
4636;SDS011;2331;48.806;9.140;2022-11-24T14:20:55;5.32;;;1.70;;
4636;SDS011;2331;48.806;9.140;2022-11-24T14:23:22;4.82;;;1.65;;
4636;SDS011;2331;48.806;9.140;2022-11-24T14:25:49;4.63;;;1.60;;
4636;SDS011;2331;48.806;9.140;2022-11-24T14:28:22;6.05;;;1.25;;
4636;SDS011;2331;48.806;9.140;2022-11-24T14:30:51;5.60;;;1.77;;
4636;SDS011;2331;48.806;9.140;2022-11-24T14:33:32;4.90;;;1.38;;
4636;SDS011;2331;48.806;9.140;2022-11-24T14:36:00;12.57;;;2.22;;
4636;SDS011;2331;48.806;9.140;2022-11-24T14:38:27;6.13;;;1.35;;
4636;SDS011;2331;48.806;9.140;2022-11-24T14:41:11;5.45;;;1.50;;
4636;SDS011;2331;48.806;9.140;2022-11-24T14:43:41;8.65;;;1.40;;
4636;SDS011;2331;48.806;9.140;2022-11-24T14:46:09;6.47;;;1.55;;
4636;SDS011;2331;48.806;9.140;2022-11-24T14:48:45;4.38;;;1.45;;
4636;SDS011;2331;48.806;9.140;2022-11-24T14:51:17;4.85;;;1.98;;
4636;SDS011;2331;48.806;9.140;2022-11-24T14:53:48;5.82;;;1.50;;
4636;SDS011;2331;48.806;9.140;2022-11-24T14:56:22;4.07;;;1.60;;
4636;SDS011;2331;48.806;9.140;2022-11-24T14:58:52;5.18;;;1.40;;
4636;SDS011;2331;48.806;9.140;2022-11-24T15:01:21;5.32;;;1.52;;
4636;SDS011;2331;48.806;9.140;2022-11-24T15:04:09;5.25;;;1.77;;
4636;SDS011;2331;48.806;9.140;2022-11-24T15:06:39;4.35;;;1.20;;
4636;SDS011;2331;48.806;9.140;2022-11-24T15:09:16;6.25;;;2.17;;
4636;SDS011;2331;48.806;9.140;2022-11-24T15:11:46;5.53;;;1.73;;
4636;SDS011;2331;48.806;9.140;2022-11-24T15:14:23;4.30;;;1.27;;
4636;SDS011;2331;48.806;9.140;2022-11-24T15:16:58;5.25;;;1.70;;
4636;SDS011;2331;48.806;9.140;2022-11-24T15:19:27;6.82;;;1.30;;
4636;SDS011;2331;48.806;9.140;2022-11-24T15:21:58;9.45;;;1.58;;
4636;SDS011;2331;48.806;9.140;2022-11-24T15:24:47;8.85;;;1.42;;
4636;SDS011;2331;48.806;9.140;2022-11-24T15:27:14;6.35;;;1.42;;
4636;SDS011;2331;48.806;9.140;2022-11-24T15:29:42;9.00;;;1.63;;
4636;SDS011;2331;48.806;9.140;2022-11-24T15:32:11;6.50;;;1.60;;
4636;SDS011;2331;48.806;9.140;2022-11-24T15:34:38;4.03;;;1.40;;
4636;SDS011;2331;48.806;9.140;2022-11-24T15:37:08;5.25;;;1.67;;
4636;SDS011;2331;48.806;9.140;2022-11-24T15:39:34;5.25;;;1.42;;
4636;SDS011;2331;48.806;9.140;2022-11-24T15:42:01;5.90;;;1.50;;
4636;SDS011;2331;48.806;9.140;2022-11-24T15:44:28;4.85;;;1.60;;
4636;SDS011;2331;48.806;9.140;2022-11-24T15:46:55;7.22;;;1.80;;
4636;SDS011;2331;48.806;9.140;2022-11-24T15:49:22;8.52;;;1.70;;
4636;SDS011;2331;48.806;9.140;2022-11-24T15:51:49;4.00;;;1.42;;
4636;SDS011;2331;48.806;9.140;2022-11-24T15:54:17;9.25;;;1.58;;
4636;SDS011;2331;48.806;9.140;2022-11-24T15:56:44;15.73;;;2.42;;